createdAt,value
2024-02-08T00:02:10.325Z,12.40
2024-02-08T00:04:38.249Z,13.70
2024-02-08T00:07:06.496Z,12.10
2024-02-08T00:09:34.142Z,9.70
2024-02-08T00:12:01.724Z,11.50
2024-02-08T00:14:29.364Z,10.10
2024-02-08T00:16:57.079Z,10.30
2024-02-08T00:19:24.715Z,10.00
2024-02-08T00:21:52.358Z,9.60
2024-02-08T00:24:20.008Z,10.60
2024-02-08T00:26:47.580Z,10.30
2024-02-08T00:29:15.300Z,23.70
2024-02-08T00:31:43.071Z,21.80
2024-02-08T00:34:11.231Z,10.10
2024-02-08T00:36:39.246Z,8.90
2024-02-08T00:39:06.967Z,10.00
2024-02-08T00:41:34.783Z,16.20
2024-02-08T00:44:02.357Z,10.30
2024-02-08T00:46:30.080Z,11.70
2024-02-08T00:48:57.872Z,10.10
2024-02-08T00:51:25.527Z,7.70
2024-02-08T00:53:53.084Z,12.40
2024-02-08T00:56:20.542Z,11.40
2024-02-08T00:58:48.494Z,11.60
2024-02-08T01:01:16.401Z,14.50
2024-02-08T01:03:43.985Z,8.70
2024-02-08T01:06:11.628Z,9.00
2024-02-08T01:08:39.152Z,11.50
2024-02-08T01:11:07.055Z,9.00
2024-02-08T01:13:34.909Z,10.30
2024-02-08T01:16:02.671Z,9.10
2024-02-08T01:18:30.420Z,10.00
2024-02-08T01:20:58.089Z,12.00
2024-02-08T01:23:25.627Z,15.40
2024-02-08T01:25:53.741Z,10.30
2024-02-08T01:28:21.260Z,9.10
2024-02-08T01:30:48.927Z,11.90
2024-02-08T01:33:16.587Z,11.90
2024-02-08T01:35:44.143Z,13.60
2024-02-08T01:38:11.765Z,11.80
2024-02-08T01:40:39.490Z,9.40
2024-02-08T01:43:07.257Z,9.40
2024-02-08T01:45:35.310Z,15.70
2024-02-08T01:48:03.562Z,8.60
2024-02-08T01:50:31.546Z,8.70
2024-02-08T01:52:59.334Z,11.00
2024-02-08T01:55:26.996Z,9.10
2024-02-08T01:57:54.637Z,10.90
2024-02-08T02:00:22.293Z,10.00
2024-02-08T02:02:50.078Z,11.90
2024-02-08T02:05:17.768Z,21.60
2024-02-08T02:07:45.592Z,20.90
2024-02-08T02:10:13.274Z,19.40
2024-02-08T02:12:41.430Z,12.30
2024-02-08T02:15:08.983Z,14.80
2024-02-08T02:17:36.654Z,15.10
2024-02-08T02:20:04.273Z,12.40
2024-02-08T02:22:32.093Z,12.20
2024-02-08T02:24:59.732Z,11.80
2024-02-08T02:27:27.393Z,12.60
2024-02-08T02:29:54.940Z,13.10
2024-02-08T02:32:22.772Z,8.90
2024-02-08T02:34:50.611Z,10.20
2024-02-08T02:37:18.277Z,11.70
2024-02-08T02:39:46.219Z,11.90
2024-02-08T02:42:13.789Z,13.40
2024-02-08T02:44:41.466Z,13.10
2024-02-08T02:47:09.142Z,13.10
2024-02-08T02:49:36.889Z,13.10
2024-02-08T02:52:04.517Z,13.90
2024-02-08T02:54:32.111Z,15.40
2024-02-08T02:56:59.736Z,13.30
2024-02-08T02:59:27.394Z,13.60
2024-02-08T03:01:55.065Z,12.00
2024-02-08T03:04:23.133Z,15.40
2024-02-08T03:06:50.705Z,10.80
2024-02-08T03:09:18.378Z,11.50
2024-02-08T03:11:45.917Z,12.60
2024-02-08T03:14:13.713Z,14.70
2024-02-08T03:16:41.452Z,19.50
2024-02-08T03:19:09.144Z,16.60
2024-02-08T03:21:36.764Z,17.30
2024-02-08T03:24:04.423Z,13.00
2024-02-08T03:26:31.991Z,12.00
2024-02-08T03:28:59.570Z,10.30
2024-02-08T03:31:27.890Z,8.40
2024-02-08T03:33:55.822Z,13.80
2024-02-08T03:36:23.449Z,10.90
2024-02-08T03:38:51.112Z,11.90
2024-02-08T03:41:18.817Z,10.00
2024-02-08T03:43:46.458Z,7.40
2024-02-08T03:46:14.202Z,8.30
2024-02-08T03:48:41.888Z,7.50
2024-02-08T03:51:09.726Z,8.80
2024-02-08T03:53:37.309Z,11.40
2024-02-08T03:56:05.318Z,11.70
2024-02-08T03:58:33.068Z,12.50
2024-02-08T04:01:00.823Z,14.40
2024-02-08T04:03:28.365Z,9.30
2024-02-08T04:05:55.934Z,9.30
2024-02-08T04:08:23.591Z,8.80
2024-02-08T04:10:51.487Z,10.30
2024-02-08T04:13:19.702Z,10.60
2024-02-08T04:15:47.275Z,11.60
2024-02-08T04:18:14.964Z,16.40
2024-02-08T04:20:42.659Z,11.90
2024-02-08T04:23:10.954Z,15.80
2024-02-08T04:25:38.833Z,19.40
2024-02-08T04:28:06.501Z,17.70
2024-02-08T04:30:34.052Z,18.30
2024-02-08T04:33:01.799Z,11.90
2024-02-08T04:35:29.574Z,14.70
2024-02-08T04:37:57.304Z,14.50
2024-02-08T04:40:25.066Z,10.60
2024-02-08T04:42:52.766Z,12.00
2024-02-08T04:45:20.326Z,13.00
2024-02-08T04:47:48.356Z,13.00
2024-02-08T04:50:16.234Z,18.20
2024-02-08T04:52:44.012Z,31.50
2024-02-08T04:55:11.782Z,28.40
2024-02-08T04:57:39.352Z,48.10
2024-02-08T05:00:07.144Z,44.80
2024-02-08T05:02:34.783Z,35.70
2024-02-08T05:05:02.596Z,34.20
2024-02-08T05:07:30.428Z,24.80
2024-02-08T05:09:57.991Z,15.40
2024-02-08T05:12:26.050Z,17.40
2024-02-08T05:14:53.598Z,15.60
2024-02-08T05:17:21.153Z,12.00
2024-02-08T05:19:48.756Z,14.20
2024-02-08T05:22:16.508Z,15.30
2024-02-08T05:24:44.227Z,24.70
2024-02-08T05:27:12.011Z,32.00
2024-02-08T05:29:39.565Z,32.70
2024-02-08T05:32:07.224Z,58.20
2024-02-08T05:34:34.874Z,45.20
2024-02-08T05:37:02.633Z,65.60
2024-02-08T05:39:30.624Z,73.10
2024-02-08T05:41:59.273Z,68.70
2024-02-08T05:44:27.183Z,54.00
2024-02-08T05:46:54.731Z,63.40
2024-02-08T05:49:24.631Z,62.70
2024-02-08T05:51:54.371Z,38.90
2024-02-08T05:54:22.279Z,27.70
2024-02-08T05:56:53.572Z,20.00
2024-02-08T05:59:22.166Z,13.10
2024-02-08T06:01:50.080Z,12.90
2024-02-08T06:04:17.940Z,11.00
2024-02-08T06:06:45.681Z,13.20
2024-02-08T06:09:13.328Z,16.80
2024-02-08T06:11:40.872Z,18.60
2024-02-08T06:14:08.542Z,13.00
2024-02-08T06:16:36.154Z,17.70
2024-02-08T06:19:04.089Z,13.40
2024-02-08T06:21:31.829Z,12.70
2024-02-08T06:23:59.390Z,12.50
2024-02-08T06:26:27.048Z,17.60
2024-02-08T06:28:55.301Z,12.40
2024-02-08T06:31:23.160Z,12.50
2024-02-08T06:33:51.027Z,12.70
2024-02-08T06:36:18.713Z,23.80
2024-02-08T06:38:46.378Z,22.10
2024-02-08T06:41:14.094Z,23.40
2024-02-08T06:43:41.910Z,27.40
2024-02-08T06:46:10.071Z,27.30
2024-02-08T06:48:38.006Z,23.70
2024-02-08T06:51:05.910Z,25.80
2024-02-08T06:53:37.433Z,38.30
2024-02-08T06:56:06.576Z,39.30
2024-02-08T06:58:34.155Z,26.60
2024-02-08T07:01:01.995Z,29.50
2024-02-08T07:03:29.832Z,25.00
2024-02-08T07:05:57.634Z,23.40
2024-02-08T07:08:25.479Z,22.50
2024-02-08T07:10:53.257Z,19.90
2024-02-08T07:13:21.070Z,19.80
2024-02-08T07:15:48.935Z,18.20
2024-02-08T07:18:16.870Z,18.80
2024-02-08T07:20:45.039Z,17.00
2024-02-08T07:23:12.789Z,18.20
2024-02-08T07:25:40.582Z,17.50
2024-02-08T07:28:08.463Z,18.60
2024-02-08T07:30:36.076Z,16.60
2024-02-08T07:33:03.803Z,18.90
2024-02-08T07:35:31.516Z,18.20
2024-02-08T07:37:59.165Z,17.10
2024-02-08T07:40:26.822Z,16.50
2024-02-08T07:42:54.510Z,16.90
2024-02-08T07:45:22.556Z,16.20
2024-02-08T07:47:50.234Z,13.00
2024-02-08T07:50:17.799Z,13.20
2024-02-08T07:52:45.444Z,15.00
2024-02-08T07:55:13.064Z,13.10
2024-02-08T07:57:40.866Z,15.80
2024-02-08T08:00:08.419Z,14.30
2024-02-08T08:02:36.096Z,15.70
2024-02-08T08:05:04.084Z,16.50
2024-02-08T08:07:32.182Z,14.00
2024-02-08T08:10:00.179Z,14.90
2024-02-08T08:12:27.958Z,14.70
2024-02-08T08:14:55.523Z,15.60
2024-02-08T08:17:23.210Z,14.10
2024-02-08T08:19:50.953Z,14.50
2024-02-08T08:22:18.646Z,15.50
2024-02-08T08:24:46.400Z,11.60
2024-02-08T08:27:13.926Z,12.70
2024-02-08T08:29:41.597Z,10.90
2024-02-08T08:32:09.146Z,11.70
2024-02-08T08:34:36.952Z,15.10
2024-02-08T08:37:05.728Z,24.40
2024-02-08T08:42:01.127Z,20.70
2024-02-08T08:44:28.679Z,20.40
2024-02-08T08:46:56.241Z,18.00
2024-02-08T08:49:24.052Z,19.00
2024-02-08T08:51:51.903Z,21.00
2024-02-08T08:54:19.544Z,15.30
2024-02-08T08:56:47.198Z,16.80
2024-02-08T08:59:15.061Z,16.00
2024-02-08T09:01:42.809Z,17.20
2024-02-08T09:04:10.856Z,15.10
2024-02-08T09:06:40.813Z,56.50
2024-02-08T09:09:09.103Z,62.90
2024-02-08T09:11:36.850Z,24.60
2024-02-08T09:14:04.421Z,19.50
2024-02-08T09:16:32.117Z,21.80
2024-02-08T09:18:59.783Z,21.60
2024-02-08T09:21:27.639Z,31.20
2024-02-08T09:23:55.376Z,16.10
2024-02-08T09:26:23.336Z,10.10
2024-02-08T09:28:50.904Z,13.00
2024-02-08T09:31:18.745Z,7.90
2024-02-08T09:33:47.462Z,10.60
2024-02-08T09:36:15.870Z,20.40
2024-02-08T09:38:43.690Z,27.60
2024-02-08T09:41:11.360Z,13.10
2024-02-08T09:43:39.072Z,14.80
2024-02-08T09:46:06.708Z,12.90
2024-02-08T09:48:34.344Z,13.80
2024-02-08T09:51:02.398Z,11.00
2024-02-08T09:53:30.026Z,13.10
2024-02-08T09:55:57.834Z,12.80
2024-02-08T09:58:25.802Z,12.70
2024-02-08T10:00:53.441Z,13.30
2024-02-08T10:03:21.247Z,15.60
2024-02-08T10:05:49.620Z,12.00
2024-02-08T10:08:17.268Z,11.70
2024-02-08T10:10:45.321Z,11.30
2024-02-08T10:15:41.650Z,19.20
2024-02-08T10:18:09.760Z,18.70
2024-02-08T10:20:37.525Z,17.50
2024-02-08T10:23:05.190Z,15.60
2024-02-08T10:25:32.845Z,15.20
2024-02-08T10:28:00.769Z,11.70
2024-02-08T10:30:28.377Z,15.90
2024-02-08T10:32:56.184Z,12.80
2024-02-08T10:35:24.572Z,10.00
2024-02-08T10:37:52.174Z,11.10
2024-02-08T10:40:19.776Z,11.80
2024-02-08T10:42:47.832Z,17.50
2024-02-08T10:45:15.620Z,12.70
2024-02-08T10:47:44.060Z,9.20
2024-02-08T10:50:12.557Z,14.50
2024-02-08T10:52:40.562Z,14.20
2024-02-08T10:55:08.394Z,14.40
2024-02-08T10:57:36.033Z,13.50
2024-02-08T11:00:03.820Z,11.60
2024-02-08T11:02:31.356Z,14.40
2024-02-08T11:04:59.580Z,13.20
2024-02-08T11:07:27.240Z,11.00
2024-02-08T11:09:55.138Z,17.50
2024-02-08T11:12:23.261Z,15.30
2024-02-08T11:14:51.084Z,12.90
2024-02-08T11:17:18.770Z,12.80
2024-02-08T11:19:46.386Z,17.80
2024-02-08T11:22:14.127Z,22.70
2024-02-08T11:24:41.837Z,18.20
2024-02-08T11:27:09.711Z,14.70
2024-02-08T11:29:37.269Z,16.30
2024-02-08T11:32:05.236Z,22.90
2024-02-08T11:34:32.831Z,20.60
2024-02-08T11:37:00.909Z,19.20
2024-02-08T11:39:28.727Z,19.90
2024-02-08T11:41:56.507Z,16.70
2024-02-08T11:44:24.255Z,18.60
2024-02-08T11:46:51.941Z,18.50
2024-02-08T11:49:19.704Z,15.60
2024-02-08T11:51:47.625Z,20.70
2024-02-08T11:54:15.412Z,18.60
2024-02-08T11:56:43.176Z,20.50
2024-02-08T11:59:10.846Z,19.70
2024-02-08T12:01:38.572Z,20.60
2024-02-08T12:04:06.475Z,19.90
2024-02-08T12:06:34.182Z,21.40
2024-02-08T12:09:01.912Z,19.00
2024-02-08T12:11:29.562Z,26.60
2024-02-08T12:14:01.118Z,22.40
2024-02-08T12:16:32.015Z,23.20
2024-02-08T12:18:59.770Z,22.70
2024-02-08T12:21:27.685Z,28.30
2024-02-08T12:23:55.346Z,26.20
2024-02-08T12:26:23.011Z,37.40
2024-02-08T12:28:50.666Z,22.20
2024-02-08T12:31:19.139Z,28.50
2024-02-08T12:33:47.664Z,22.90
2024-02-08T12:36:15.517Z,27.10
2024-02-08T12:38:43.151Z,21.10
2024-02-08T12:41:10.814Z,26.20
2024-02-08T12:43:38.491Z,25.70
2024-02-08T12:46:06.694Z,27.60
2024-02-08T12:48:34.334Z,20.30
2024-02-08T12:51:01.872Z,14.70
2024-02-08T12:53:29.636Z,22.20
2024-02-08T12:55:57.200Z,44.50
2024-02-08T12:58:24.873Z,29.10
2024-02-08T13:00:52.468Z,27.00
2024-02-08T13:03:20.176Z,34.80
2024-02-08T13:05:47.844Z,35.20
2024-02-08T13:08:15.637Z,22.90
2024-02-08T13:10:43.800Z,28.80
2024-02-08T13:13:12.641Z,23.30
2024-02-08T13:15:41.047Z,21.40
2024-02-08T13:18:08.647Z,23.10
2024-02-08T13:23:04.048Z,83.90
2024-02-08T13:25:31.942Z,413.80
2024-02-08T13:27:59.749Z,61.30
2024-02-08T13:30:27.527Z,370.00
2024-02-08T13:32:55.155Z,45.00
2024-02-08T13:35:23.070Z,36.60
2024-02-08T13:37:51.590Z,38.70
2024-02-08T13:42:54.194Z,22.50
2024-02-08T13:45:23.330Z,21.00
2024-02-08T13:47:51.180Z,21.60
2024-02-08T13:50:19.212Z,21.20
2024-02-08T13:52:47.073Z,37.30
2024-02-08T13:55:14.929Z,26.60
2024-02-08T13:57:42.968Z,25.20
2024-02-08T14:00:10.524Z,23.50
2024-02-08T14:02:38.420Z,30.70
2024-02-08T14:05:06.449Z,32.20
2024-02-08T14:07:34.164Z,32.50
2024-02-08T14:10:02.089Z,27.90
2024-02-08T14:12:29.963Z,28.70
2024-02-08T14:14:57.510Z,29.30
2024-02-08T14:17:25.180Z,31.20
2024-02-08T14:19:53.018Z,28.50
2024-02-08T14:22:20.763Z,34.60
2024-02-08T14:24:48.814Z,30.00
2024-02-08T14:27:16.637Z,33.30
2024-02-08T14:29:44.305Z,34.80
2024-02-08T14:32:17.202Z,73.80
2024-02-08T14:34:54.116Z,307.40
2024-02-08T14:37:21.861Z,447.90
2024-02-08T14:39:49.439Z,272.10
2024-02-08T14:42:17.050Z,288.70
2024-02-08T14:44:44.615Z,299.10
2024-02-08T14:47:12.269Z,552.00
2024-02-08T14:49:40.182Z,385.40
2024-02-08T14:52:07.862Z,256.30
2024-02-08T14:54:36.269Z,55.40
2024-02-08T14:57:04.572Z,37.60
2024-02-08T14:59:32.128Z,35.50
2024-02-08T15:01:59.980Z,27.00
2024-02-08T15:04:27.686Z,33.10
2024-02-08T15:06:55.420Z,27.40
2024-02-08T15:09:23.074Z,24.30
2024-02-08T15:11:50.728Z,27.80
2024-02-08T15:14:18.599Z,29.00
2024-02-08T15:16:46.467Z,37.50
2024-02-08T15:19:15.475Z,67.60
2024-02-08T15:21:44.307Z,27.40
2024-02-08T15:24:12.036Z,25.70
2024-02-08T15:26:39.581Z,28.60
2024-02-08T15:29:07.239Z,28.00
2024-02-08T15:31:35.098Z,29.00
2024-02-08T15:34:03.156Z,26.90
2024-02-08T15:36:30.934Z,27.50
2024-02-08T15:38:58.617Z,25.80
2024-02-08T15:41:26.561Z,26.50
2024-02-08T15:43:54.220Z,25.10
2024-02-08T15:46:22.044Z,26.40
2024-02-08T15:48:49.784Z,26.50
2024-02-08T15:51:17.717Z,28.50
2024-02-08T15:53:45.383Z,27.20
2024-02-08T15:56:12.937Z,34.00
2024-02-08T15:58:40.771Z,40.00
2024-02-08T16:01:08.728Z,39.90
2024-02-08T16:03:36.815Z,40.10
2024-02-08T16:06:04.852Z,29.80
2024-02-08T16:08:35.574Z,28.90
2024-02-08T16:11:03.625Z,27.00
2024-02-08T16:13:31.278Z,24.90
2024-02-08T16:15:59.092Z,47.50
2024-02-08T16:18:27.638Z,42.30
2024-02-08T16:20:55.969Z,54.10
2024-02-08T16:23:23.773Z,40.50
2024-02-08T16:25:51.392Z,41.20
2024-02-08T16:28:19.517Z,27.20
2024-02-08T16:30:47.166Z,44.50
2024-02-08T16:33:15.233Z,36.30
2024-02-08T16:35:42.976Z,46.90
2024-02-08T16:38:10.668Z,152.80
2024-02-08T16:40:38.343Z,147.10
2024-02-08T16:43:06.021Z,151.60
2024-02-08T16:45:33.755Z,120.40
2024-02-08T16:48:01.557Z,116.20
2024-02-08T16:50:29.180Z,86.20
2024-02-08T16:52:56.735Z,83.40
2024-02-08T16:55:24.677Z,54.10
2024-02-08T16:57:52.389Z,41.50
2024-02-08T17:00:20.025Z,40.70
2024-02-08T17:02:47.685Z,36.60
2024-02-08T17:05:15.384Z,30.60
2024-02-08T17:07:43.316Z,37.10
2024-02-08T17:10:11.036Z,40.00
2024-02-08T17:12:38.752Z,42.50
2024-02-08T17:15:06.404Z,36.90
2024-02-08T17:17:34.025Z,36.80
2024-02-08T17:20:01.933Z,37.50
2024-02-08T17:22:30.142Z,37.00
2024-02-08T17:24:58.101Z,22.80
2024-02-08T17:27:25.845Z,35.90
2024-02-08T17:29:54.007Z,38.70
2024-02-08T17:32:21.705Z,51.30
2024-02-08T17:34:49.447Z,42.80
2024-02-08T17:37:17.120Z,40.90
2024-02-08T17:39:44.859Z,45.10
2024-02-08T17:42:12.418Z,37.30
2024-02-08T17:44:40.677Z,41.30
2024-02-08T17:47:09.106Z,41.40
2024-02-08T17:49:36.694Z,43.10
2024-02-08T17:52:04.556Z,48.50
2024-02-08T17:54:32.159Z,55.90
2024-02-08T17:56:59.841Z,57.80
2024-02-08T17:59:27.388Z,79.20
2024-02-08T18:01:55.497Z,74.20
2024-02-08T18:04:24.006Z,56.60
2024-02-08T18:06:51.855Z,74.30
2024-02-08T18:09:19.570Z,56.20
2024-02-08T18:11:47.538Z,49.30
2024-02-08T18:14:15.091Z,48.80
2024-02-08T18:16:42.764Z,40.10
2024-02-08T18:19:10.403Z,47.30
2024-02-08T18:21:38.177Z,59.80
2024-02-08T18:24:05.845Z,50.20
2024-02-08T18:26:33.518Z,48.90
2024-02-08T18:29:01.148Z,43.70
2024-02-08T18:31:29.015Z,52.10
2024-02-08T18:33:56.886Z,46.10
2024-02-08T18:36:24.655Z,51.70
2024-02-08T18:38:52.730Z,48.10
2024-02-08T18:41:20.604Z,60.20
2024-02-08T18:43:48.353Z,43.70
2024-02-08T18:46:16.678Z,50.90
2024-02-08T18:48:46.626Z,51.30
2024-02-08T18:51:14.836Z,51.50
2024-02-08T18:53:42.487Z,55.20
2024-02-08T18:56:10.050Z,59.50
2024-02-08T18:58:37.761Z,56.00
2024-02-08T19:01:05.627Z,47.60
2024-02-08T19:03:33.779Z,58.30
2024-02-08T19:06:01.755Z,49.00
2024-02-08T19:08:29.687Z,62.90
2024-02-08T19:10:57.487Z,67.50
2024-02-08T19:13:25.157Z,63.70
2024-02-08T19:15:53.031Z,61.90
2024-02-08T19:18:21.016Z,69.20
2024-02-08T19:20:48.802Z,59.10
2024-02-08T19:23:16.611Z,46.20
2024-02-08T19:25:44.168Z,59.10
2024-02-08T19:28:11.814Z,53.70
2024-02-08T19:30:39.769Z,52.10
2024-02-08T19:33:07.354Z,54.60
2024-02-08T19:35:35.051Z,51.80
2024-02-08T19:38:02.870Z,48.40
2024-02-08T19:40:30.438Z,48.80
2024-02-08T19:42:58.101Z,54.50
2024-02-08T19:45:25.840Z,75.90
2024-02-08T19:47:53.472Z,66.90
2024-02-08T19:50:21.259Z,58.20
2024-02-08T19:52:49.144Z,58.30
2024-02-08T19:55:17.532Z,65.70
2024-02-08T19:57:45.068Z,59.00
2024-02-08T20:00:12.722Z,61.20
2024-02-08T20:02:40.382Z,66.80
2024-02-08T20:05:08.333Z,67.90
2024-02-08T20:07:36.154Z,67.50
2024-02-08T20:10:03.881Z,65.30
2024-02-08T20:12:31.646Z,61.10
2024-02-08T20:14:59.209Z,61.70
2024-02-08T20:17:26.786Z,58.20
2024-02-08T20:19:54.845Z,68.40
2024-02-08T20:22:22.585Z,63.40
2024-02-08T20:24:50.270Z,78.50
2024-02-08T20:27:17.821Z,56.30
2024-02-08T20:29:45.502Z,67.70
2024-02-08T20:32:13.143Z,58.60
2024-02-08T20:34:40.762Z,68.40
2024-02-08T20:37:08.667Z,63.80
2024-02-08T20:39:36.342Z,68.40
2024-02-08T20:42:04.008Z,66.40
2024-02-08T20:44:31.575Z,63.50
2024-02-08T20:46:59.212Z,62.50
2024-02-08T20:49:26.906Z,66.60
2024-02-08T20:51:54.476Z,77.50
2024-02-08T20:54:22.096Z,80.30
2024-02-08T20:56:49.769Z,74.60
2024-02-08T20:59:17.526Z,74.30
2024-02-08T21:01:45.251Z,59.60
2024-02-08T21:04:12.904Z,55.40
2024-02-08T21:06:40.619Z,59.00
2024-02-08T21:09:08.658Z,51.30
2024-02-08T21:11:36.351Z,64.30
2024-02-08T21:14:04.124Z,63.80
2024-02-08T21:16:31.770Z,55.50
2024-02-08T21:18:59.598Z,49.90
2024-02-08T21:21:27.399Z,47.20
2024-02-08T21:23:55.065Z,60.00
2024-02-08T21:26:22.741Z,54.70
2024-02-08T21:28:50.391Z,60.70
2024-02-08T21:31:18.082Z,59.50
2024-02-08T21:33:45.741Z,57.10
2024-02-08T21:36:13.688Z,55.30
2024-02-08T21:38:41.342Z,56.80
2024-02-08T21:41:09.014Z,56.10
2024-02-08T21:43:36.742Z,55.80
2024-02-08T21:46:04.447Z,57.80
2024-02-08T21:48:32.254Z,53.00
2024-02-08T21:51:00.169Z,47.80
2024-02-08T21:53:27.830Z,44.20
2024-02-08T21:55:55.498Z,43.20
2024-02-08T21:58:23.471Z,46.90
2024-02-08T22:03:35.881Z,44.90
2024-02-08T22:06:03.793Z,44.70
2024-02-08T22:08:31.732Z,43.20
2024-02-08T22:10:59.583Z,40.30
2024-02-08T22:13:27.275Z,46.90
2024-02-08T22:15:54.939Z,44.80
2024-02-08T22:18:22.757Z,34.40
2024-02-08T22:20:50.529Z,35.60
2024-02-08T22:23:18.092Z,29.20
2024-02-08T22:25:46.058Z,28.80
2024-02-08T22:28:13.797Z,33.80
2024-02-08T22:30:41.486Z,29.10
2024-02-08T22:33:09.250Z,30.00
2024-02-08T22:35:37.058Z,29.00
2024-02-08T22:38:04.881Z,28.40
2024-02-08T22:40:32.561Z,30.70
2024-02-08T22:43:00.334Z,24.70
2024-02-08T22:45:27.859Z,24.40
2024-02-08T22:47:55.551Z,25.50
2024-02-08T22:50:23.919Z,24.10
2024-02-08T22:52:52.010Z,24.60
2024-02-08T22:55:19.690Z,23.10
2024-02-08T22:57:47.500Z,22.70
2024-02-08T23:00:15.066Z,20.90
2024-02-08T23:02:42.745Z,22.20
2024-02-08T23:05:10.598Z,19.60
2024-02-08T23:07:38.347Z,17.40
2024-02-08T23:10:06.255Z,18.20
2024-02-08T23:12:33.878Z,16.70
2024-02-08T23:15:01.861Z,16.80
2024-02-08T23:17:29.576Z,17.10
2024-02-08T23:19:57.579Z,16.90
2024-02-08T23:22:27.208Z,14.80
2024-02-08T23:24:55.244Z,15.10
2024-02-08T23:27:22.919Z,14.20
2024-02-08T23:29:50.577Z,13.70
2024-02-08T23:32:18.146Z,15.70
2024-02-08T23:34:45.735Z,16.90
2024-02-08T23:37:13.414Z,15.20
2024-02-08T23:39:41.240Z,14.60
2024-02-08T23:42:09.416Z,15.30
2024-02-08T23:44:37.174Z,15.20
2024-02-08T23:47:04.731Z,14.60
2024-02-08T23:49:32.421Z,17.30
2024-02-08T23:52:00.325Z,18.90
2024-02-08T23:54:28.226Z,13.70
2024-02-08T23:56:55.777Z,16.40
2024-02-08T23:59:23.443Z,15.90
